sensor_id;sensor_type;location;lat;lon;timestamp;temperature;humidity
14893;DHT22;7538;53.626;9.906;2023-01-09T00:01:38;6.40;99.90
14893;DHT22;7538;53.626;9.906;2023-01-09T00:04:05;6.40;99.90
14893;DHT22;7538;53.626;9.906;2023-01-09T00:06:33;6.30;99.90
14893;DHT22;7538;53.626;9.906;2023-01-09T00:09:00;6.40;99.90
14893;DHT22;7538;53.626;9.906;2023-01-09T00:11:27;6.30;99.90
14893;DHT22;7538;53.626;9.906;2023-01-09T00:13:53;6.30;99.90
14893;DHT22;7538;53.626;9.906;2023-01-09T00:16:20;6.30;99.90
14893;DHT22;7538;53.626;9.906;2023-01-09T00:18:49;6.40;99.90
14893;DHT22;7538;53.626;9.906;2023-01-09T00:21:18;6.30;99.90
14893;DHT22;7538;53.626;9.906;2023-01-09T00:23:46;6.30;99.90
14893;DHT22;7538;53.626;9.906;2023-01-09T00:26:15;6.40;99.90
14893;DHT22;7538;53.626;9.906;2023-01-09T00:28:42;6.30;99.90
14893;DHT22;7538;53.626;9.906;2023-01-09T00:31:10;6.30;99.90
14893;DHT22;7538;53.626;9.906;2023-01-09T00:33:39;6.30;99.90
14893;DHT22;7538;53.626;9.906;2023-01-09T00:36:08;6.30;99.90
14893;DHT22;7538;53.626;9.906;2023-01-09T00:38:36;6.30;99.90
14893;DHT22;7538;53.626;9.906;2023-01-09T00:41:03;6.40;99.90
14893;DHT22;7538;53.626;9.906;2023-01-09T00:43:34;6.40;99.90
14893;DHT22;7538;53.626;9.906;2023-01-09T00:46:04;6.40;99.90
14893;DHT22;7538;53.626;9.906;2023-01-09T00:48:32;6.40;99.90
14893;DHT22;7538;53.626;9.906;2023-01-09T00:51:00;6.30;99.90
14893;DHT22;7538;53.626;9.906;2023-01-09T00:53:30;6.40;99.90
14893;DHT22;7538;53.626;9.906;2023-01-09T00:56:00;6.40;99.90
14893;DHT22;7538;53.626;9.906;2023-01-09T00:58:28;6.40;99.90
14893;DHT22;7538;53.626;9.906;2023-01-09T01:00:57;6.40;99.90
14893;DHT22;7538;53.626;9.906;2023-01-09T01:03:23;6.40;99.90
14893;DHT22;7538;53.626;9.906;2023-01-09T01:05:50;6.50;99.90
14893;DHT22;7538;53.626;9.906;2023-01-09T01:08:36;6.50;99.90
14893;DHT22;7538;53.626;9.906;2023-01-09T01:11:04;6.50;99.90
14893;DHT22;7538;53.626;9.906;2023-01-09T01:13:31;6.60;99.90
14893;DHT22;7538;53.626;9.906;2023-01-09T01:15:57;3.70;99.90
14893;DHT22;7538;53.626;9.906;2023-01-09T01:18:24;6.80;99.90
14893;DHT22;7538;53.626;9.906;2023-01-09T01:20:51;6.80;99.90
14893;DHT22;7538;53.626;9.906;2023-01-09T01:23:18;7.00;99.90
14893;DHT22;7538;53.626;9.906;2023-01-09T01:25:46;6.90;99.90
14893;DHT22;7538;53.626;9.906;2023-01-09T01:28:13;6.90;99.90
14893;DHT22;7538;53.626;9.906;2023-01-09T01:30:41;7.00;99.90
14893;DHT22;7538;53.626;9.906;2023-01-09T01:33:09;7.00;99.90
14893;DHT22;7538;53.626;9.906;2023-01-09T01:35:36;7.00;99.90
14893;DHT22;7538;53.626;9.906;2023-01-09T01:38:03;7.00;99.90
14893;DHT22;7538;53.626;9.906;2023-01-09T01:40:30;7.00;99.90
14893;DHT22;7538;53.626;9.906;2023-01-09T01:42:58;7.00;99.90
14893;DHT22;7538;53.626;9.906;2023-01-09T01:45:26;7.00;99.90
14893;DHT22;7538;53.626;9.906;2023-01-09T01:47:57;7.00;99.90
14893;DHT22;7538;53.626;9.906;2023-01-09T01:50:29;7.00;99.90
14893;DHT22;7538;53.626;9.906;2023-01-09T01:53:03;7.00;99.90
14893;DHT22;7538;53.626;9.906;2023-01-09T01:55:34;6.90;99.90
14893;DHT22;7538;53.626;9.906;2023-01-09T01:58:04;7.00;99.90
14893;DHT22;7538;53.626;9.906;2023-01-09T02:00:35;7.00;99.90
14893;DHT22;7538;53.626;9.906;2023-01-09T02:03:03;6.90;99.90
14893;DHT22;7538;53.626;9.906;2023-01-09T02:05:32;7.00;99.90
14893;DHT22;7538;53.626;9.906;2023-01-09T02:07:59;7.00;99.90
14893;DHT22;7538;53.626;9.906;2023-01-09T02:10:26;7.00;99.90
14893;DHT22;7538;53.626;9.906;2023-01-09T02:12:53;7.00;99.90
14893;DHT22;7538;53.626;9.906;2023-01-09T02:15:21;7.10;99.90
14893;DHT22;7538;53.626;9.906;2023-01-09T02:18:29;7.00;99.90
14893;DHT22;7538;53.626;9.906;2023-01-09T02:21:00;7.10;99.90
14893;DHT22;7538;53.626;9.906;2023-01-09T02:26:53;7.10;99.90
14893;DHT22;7538;53.626;9.906;2023-01-09T02:32:33;7.20;99.90
14893;DHT22;7538;53.626;9.906;2023-01-09T02:35:09;7.30;99.90
14893;DHT22;7538;53.626;9.906;2023-01-09T02:37:44;7.30;99.90
14893;DHT22;7538;53.626;9.906;2023-01-09T02:40:20;7.30;99.90
14893;DHT22;7538;53.626;9.906;2023-01-09T02:42:48;7.30;99.90
14893;DHT22;7538;53.626;9.906;2023-01-09T02:45:16;7.40;99.90
14893;DHT22;7538;53.626;9.906;2023-01-09T02:47:46;7.40;99.90
14893;DHT22;7538;53.626;9.906;2023-01-09T02:50:16;7.50;99.90
14893;DHT22;7538;53.626;9.906;2023-01-09T02:55:51;7.60;99.90
14893;DHT22;7538;53.626;9.906;2023-01-09T02:58:30;7.70;99.90
14893;DHT22;7538;53.626;9.906;2023-01-09T03:01:10;7.70;99.90
14893;DHT22;7538;53.626;9.906;2023-01-09T03:03:46;7.80;99.90
14893;DHT22;7538;53.626;9.906;2023-01-09T03:06:17;7.80;99.90
14893;DHT22;7538;53.626;9.906;2023-01-09T03:08:49;7.80;99.90
14893;DHT22;7538;53.626;9.906;2023-01-09T03:11:16;7.90;99.90
14893;DHT22;7538;53.626;9.906;2023-01-09T03:13:46;7.80;99.90
14893;DHT22;7538;53.626;9.906;2023-01-09T03:16:16;7.90;99.90
14893;DHT22;7538;53.626;9.906;2023-01-09T03:18:48;7.90;99.90
14893;DHT22;7538;53.626;9.906;2023-01-09T03:21:16;7.90;99.90
14893;DHT22;7538;53.626;9.906;2023-01-09T03:23:48;8.00;99.90
14893;DHT22;7538;53.626;9.906;2023-01-09T03:26:15;8.00;99.90
14893;DHT22;7538;53.626;9.906;2023-01-09T03:28:43;8.00;99.90
14893;DHT22;7538;53.626;9.906;2023-01-09T03:31:10;8.00;99.90
14893;DHT22;7538;53.626;9.906;2023-01-09T03:33:37;8.00;99.90
14893;DHT22;7538;53.626;9.906;2023-01-09T03:36:06;8.00;99.90
14893;DHT22;7538;53.626;9.906;2023-01-09T03:38:33;8.00;99.90
14893;DHT22;7538;53.626;9.906;2023-01-09T03:41:00;8.00;99.90
14893;DHT22;7538;53.626;9.906;2023-01-09T03:43:27;8.00;99.90
14893;DHT22;7538;53.626;9.906;2023-01-09T03:45:54;8.10;99.90
14893;DHT22;7538;53.626;9.906;2023-01-09T03:48:21;8.10;99.90
14893;DHT22;7538;53.626;9.906;2023-01-09T03:50:48;8.20;99.90
14893;DHT22;7538;53.626;9.906;2023-01-09T03:53:17;8.10;99.90
14893;DHT22;7538;53.626;9.906;2023-01-09T03:55:46;8.10;99.90
14893;DHT22;7538;53.626;9.906;2023-01-09T03:58:14;8.10;99.90
14893;DHT22;7538;53.626;9.906;2023-01-09T04:00:42;8.20;99.90
14893;DHT22;7538;53.626;9.906;2023-01-09T04:03:11;8.20;99.90
14893;DHT22;7538;53.626;9.906;2023-01-09T04:05:38;8.30;99.90
14893;DHT22;7538;53.626;9.906;2023-01-09T04:08:05;8.30;99.90
14893;DHT22;7538;53.626;9.906;2023-01-09T04:10:33;8.30;99.90
14893;DHT22;7538;53.626;9.906;2023-01-09T04:13:00;8.40;99.90
14893;DHT22;7538;53.626;9.906;2023-01-09T04:15:26;8.40;99.90
14893;DHT22;7538;53.626;9.906;2023-01-09T04:17:53;8.50;99.90
14893;DHT22;7538;53.626;9.906;2023-01-09T04:20:20;8.50;99.90
14893;DHT22;7538;53.626;9.906;2023-01-09T04:22:47;8.50;99.90
14893;DHT22;7538;53.626;9.906;2023-01-09T04:25:14;8.50;99.90
14893;DHT22;7538;53.626;9.906;2023-01-09T04:27:42;8.50;99.90
14893;DHT22;7538;53.626;9.906;2023-01-09T04:30:10;8.50;99.90
14893;DHT22;7538;53.626;9.906;2023-01-09T04:32:37;8.60;99.90
14893;DHT22;7538;53.626;9.906;2023-01-09T04:35:05;8.60;99.90
14893;DHT22;7538;53.626;9.906;2023-01-09T04:37:32;8.60;99.90
14893;DHT22;7538;53.626;9.906;2023-01-09T04:40:00;8.60;99.90
14893;DHT22;7538;53.626;9.906;2023-01-09T04:42:30;8.60;99.90
14893;DHT22;7538;53.626;9.906;2023-01-09T04:44:58;8.60;99.90
14893;DHT22;7538;53.626;9.906;2023-01-09T04:47:25;8.60;99.90
14893;DHT22;7538;53.626;9.906;2023-01-09T04:49:52;8.60;99.90
14893;DHT22;7538;53.626;9.906;2023-01-09T04:52:19;8.60;99.90
14893;DHT22;7538;53.626;9.906;2023-01-09T04:54:46;8.60;99.90
14893;DHT22;7538;53.626;9.906;2023-01-09T04:57:12;8.50;99.90
14893;DHT22;7538;53.626;9.906;2023-01-09T04:59:39;8.50;99.90
14893;DHT22;7538;53.626;9.906;2023-01-09T05:02:08;8.60;99.90
14893;DHT22;7538;53.626;9.906;2023-01-09T05:04:34;8.60;99.90
14893;DHT22;7538;53.626;9.906;2023-01-09T05:07:01;8.50;99.90
14893;DHT22;7538;53.626;9.906;2023-01-09T05:09:29;8.60;99.90
14893;DHT22;7538;53.626;9.906;2023-01-09T05:11:56;8.60;99.90
14893;DHT22;7538;53.626;9.906;2023-01-09T05:14:22;8.60;99.90
14893;DHT22;7538;53.626;9.906;2023-01-09T05:16:49;8.60;99.90
14893;DHT22;7538;53.626;9.906;2023-01-09T05:19:17;8.60;99.90
14893;DHT22;7538;53.626;9.906;2023-01-09T05:21:45;8.60;99.90
14893;DHT22;7538;53.626;9.906;2023-01-09T05:24:12;8.50;99.90
14893;DHT22;7538;53.626;9.906;2023-01-09T05:26:39;8.50;99.90
14893;DHT22;7538;53.626;9.906;2023-01-09T05:29:06;8.50;99.90
14893;DHT22;7538;53.626;9.906;2023-01-09T05:31:33;8.40;99.90
14893;DHT22;7538;53.626;9.906;2023-01-09T05:34:00;8.40;99.90
14893;DHT22;7538;53.626;9.906;2023-01-09T05:36:28;8.40;99.90
14893;DHT22;7538;53.626;9.906;2023-01-09T05:38:55;8.40;99.90
14893;DHT22;7538;53.626;9.906;2023-01-09T05:41:22;8.40;99.90
14893;DHT22;7538;53.626;9.906;2023-01-09T05:43:51;8.30;99.90
14893;DHT22;7538;53.626;9.906;2023-01-09T05:46:18;5.90;99.90
14893;DHT22;7538;53.626;9.906;2023-01-09T05:48:45;8.30;99.90
14893;DHT22;7538;53.626;9.906;2023-01-09T05:51:12;8.30;99.90
14893;DHT22;7538;53.626;9.906;2023-01-09T05:53:40;8.20;99.90
14893;DHT22;7538;53.626;9.906;2023-01-09T05:56:07;8.30;99.90
14893;DHT22;7538;53.626;9.906;2023-01-09T05:58:34;8.30;99.90
14893;DHT22;7538;53.626;9.906;2023-01-09T06:01:01;8.30;99.90
14893;DHT22;7538;53.626;9.906;2023-01-09T06:03:28;8.30;99.90
14893;DHT22;7538;53.626;9.906;2023-01-09T06:05:55;8.30;99.90
14893;DHT22;7538;53.626;9.906;2023-01-09T06:08:22;8.30;99.90
14893;DHT22;7538;53.626;9.906;2023-01-09T06:10:50;8.40;99.90
14893;DHT22;7538;53.626;9.906;2023-01-09T06:13:17;8.40;99.90
14893;DHT22;7538;53.626;9.906;2023-01-09T06:15:46;8.40;99.90
14893;DHT22;7538;53.626;9.906;2023-01-09T06:18:13;8.40;99.90
14893;DHT22;7538;53.626;9.906;2023-01-09T06:20:40;8.40;99.90
14893;DHT22;7538;53.626;9.906;2023-01-09T06:23:07;8.30;99.90
14893;DHT22;7538;53.626;9.906;2023-01-09T06:25:35;8.40;99.90
14893;DHT22;7538;53.626;9.906;2023-01-09T06:28:04;8.40;99.90
14893;DHT22;7538;53.626;9.906;2023-01-09T06:30:31;8.40;99.90
14893;DHT22;7538;53.626;9.906;2023-01-09T06:32:58;8.40;99.90
14893;DHT22;7538;53.626;9.906;2023-01-09T06:35:26;8.40;99.90
14893;DHT22;7538;53.626;9.906;2023-01-09T06:37:53;8.50;99.90
14893;DHT22;7538;53.626;9.906;2023-01-09T06:40:20;8.50;99.90
14893;DHT22;7538;53.626;9.906;2023-01-09T06:42:47;8.50;99.90
14893;DHT22;7538;53.626;9.906;2023-01-09T06:45:15;8.50;99.90
14893;DHT22;7538;53.626;9.906;2023-01-09T06:47:42;8.50;99.90
14893;DHT22;7538;53.626;9.906;2023-01-09T06:50:10;8.50;99.90
14893;DHT22;7538;53.626;9.906;2023-01-09T06:52:38;8.50;99.90
14893;DHT22;7538;53.626;9.906;2023-01-09T06:55:06;8.50;99.90
14893;DHT22;7538;53.626;9.906;2023-01-09T06:57:33;8.50;99.90
14893;DHT22;7538;53.626;9.906;2023-01-09T06:59:59;8.50;99.90
14893;DHT22;7538;53.626;9.906;2023-01-09T07:02:27;8.50;99.90
14893;DHT22;7538;53.626;9.906;2023-01-09T07:04:54;8.40;99.90
14893;DHT22;7538;53.626;9.906;2023-01-09T07:07:21;8.50;99.90
14893;DHT22;7538;53.626;9.906;2023-01-09T07:09:48;8.50;99.90
14893;DHT22;7538;53.626;9.906;2023-01-09T07:12:16;8.40;99.90
14893;DHT22;7538;53.626;9.906;2023-01-09T07:14:42;8.40;99.90
14893;DHT22;7538;53.626;9.906;2023-01-09T07:17:11;8.30;99.90
14893;DHT22;7538;53.626;9.906;2023-01-09T07:19:40;8.30;99.90
14893;DHT22;7538;53.626;9.906;2023-01-09T07:22:07;8.30;99.90
14893;DHT22;7538;53.626;9.906;2023-01-09T07:24:34;8.30;99.90
14893;DHT22;7538;53.626;9.906;2023-01-09T07:27:00;8.30;99.90
14893;DHT22;7538;53.626;9.906;2023-01-09T07:29:28;8.30;99.90
14893;DHT22;7538;53.626;9.906;2023-01-09T07:31:54;8.20;99.90
14893;DHT22;7538;53.626;9.906;2023-01-09T07:34:21;8.30;99.90
14893;DHT22;7538;53.626;9.906;2023-01-09T07:36:49;8.20;99.90
14893;DHT22;7538;53.626;9.906;2023-01-09T07:39:16;8.20;99.90
14893;DHT22;7538;53.626;9.906;2023-01-09T07:41:44;8.10;99.90
14893;DHT22;7538;53.626;9.906;2023-01-09T07:44:11;8.10;99.90
14893;DHT22;7538;53.626;9.906;2023-01-09T07:46:38;8.20;99.90
14893;DHT22;7538;53.626;9.906;2023-01-09T07:49:05;8.10;99.90
14893;DHT22;7538;53.626;9.906;2023-01-09T07:51:33;8.10;99.90
14893;DHT22;7538;53.626;9.906;2023-01-09T07:54:01;8.10;99.90
14893;DHT22;7538;53.626;9.906;2023-01-09T07:56:27;8.20;99.90
14893;DHT22;7538;53.626;9.906;2023-01-09T07:58:56;8.20;99.90
14893;DHT22;7538;53.626;9.906;2023-01-09T08:01:24;8.20;99.90
14893;DHT22;7538;53.626;9.906;2023-01-09T08:03:50;8.10;99.90
14893;DHT22;7538;53.626;9.906;2023-01-09T08:06:17;8.10;99.90
14893;DHT22;7538;53.626;9.906;2023-01-09T08:08:44;8.10;99.90
14893;DHT22;7538;53.626;9.906;2023-01-09T08:11:12;8.10;99.90
14893;DHT22;7538;53.626;9.906;2023-01-09T08:13:39;8.10;99.90
14893;DHT22;7538;53.626;9.906;2023-01-09T08:16:06;8.10;99.90
14893;DHT22;7538;53.626;9.906;2023-01-09T08:18:33;8.10;99.90
14893;DHT22;7538;53.626;9.906;2023-01-09T08:21:00;8.10;99.90
14893;DHT22;7538;53.626;9.906;2023-01-09T08:23:26;8.10;99.90
14893;DHT22;7538;53.626;9.906;2023-01-09T08:25:53;8.10;99.90
14893;DHT22;7538;53.626;9.906;2023-01-09T08:28:21;8.20;99.90
14893;DHT22;7538;53.626;9.906;2023-01-09T08:30:48;8.10;99.90
14893;DHT22;7538;53.626;9.906;2023-01-09T08:33:15;8.20;99.90
14893;DHT22;7538;53.626;9.906;2023-01-09T08:35:42;8.10;99.90
14893;DHT22;7538;53.626;9.906;2023-01-09T08:38:09;8.10;99.90
14893;DHT22;7538;53.626;9.906;2023-01-09T08:40:36;8.00;99.90
14893;DHT22;7538;53.626;9.906;2023-01-09T08:43:03;8.00;99.90
14893;DHT22;7538;53.626;9.906;2023-01-09T08:45:48;8.00;99.90
14893;DHT22;7538;53.626;9.906;2023-01-09T08:48:33;8.00;99.90
14893;DHT22;7538;53.626;9.906;2023-01-09T08:50:59;8.00;99.90
14893;DHT22;7538;53.626;9.906;2023-01-09T08:53:27;8.00;99.90
14893;DHT22;7538;53.626;9.906;2023-01-09T08:55:55;8.00;99.90
14893;DHT22;7538;53.626;9.906;2023-01-09T08:58:22;8.20;99.90
14893;DHT22;7538;53.626;9.906;2023-01-09T09:00:50;8.10;99.90
14893;DHT22;7538;53.626;9.906;2023-01-09T09:03:17;8.30;99.90
14893;DHT22;7538;53.626;9.906;2023-01-09T09:05:44;8.20;99.90
14893;DHT22;7538;53.626;9.906;2023-01-09T09:08:11;8.30;99.90
14893;DHT22;7538;53.626;9.906;2023-01-09T09:10:37;8.40;99.90
14893;DHT22;7538;53.626;9.906;2023-01-09T09:13:05;8.40;99.90
14893;DHT22;7538;53.626;9.906;2023-01-09T09:15:32;8.60;99.90
14893;DHT22;7538;53.626;9.906;2023-01-09T09:18:03;8.80;99.90
14893;DHT22;7538;53.626;9.906;2023-01-09T09:20:31;8.90;99.90
14893;DHT22;7538;53.626;9.906;2023-01-09T09:22:58;9.10;99.90
14893;DHT22;7538;53.626;9.906;2023-01-09T09:25:26;9.30;99.90
14893;DHT22;7538;53.626;9.906;2023-01-09T09:27:53;9.40;99.90
14893;DHT22;7538;53.626;9.906;2023-01-09T09:30:22;9.50;99.90
14893;DHT22;7538;53.626;9.906;2023-01-09T09:32:49;9.50;99.90
14893;DHT22;7538;53.626;9.906;2023-01-09T09:35:17;9.40;99.90
14893;DHT22;7538;53.626;9.906;2023-01-09T09:37:54;9.50;99.90
14893;DHT22;7538;53.626;9.906;2023-01-09T09:40:30;9.50;99.90
14893;DHT22;7538;53.626;9.906;2023-01-09T09:43:11;9.40;99.90
14893;DHT22;7538;53.626;9.906;2023-01-09T09:46:05;9.30;99.90
14893;DHT22;7538;53.626;9.906;2023-01-09T09:48:35;9.20;99.90
14893;DHT22;7538;53.626;9.906;2023-01-09T09:51:24;9.10;99.90
14893;DHT22;7538;53.626;9.906;2023-01-09T09:53:58;9.10;99.90
14893;DHT22;7538;53.626;9.906;2023-01-09T09:56:26;9.00;99.90
14893;DHT22;7538;53.626;9.906;2023-01-09T09:58:57;9.00;99.90
14893;DHT22;7538;53.626;9.906;2023-01-09T10:01:30;9.00;99.90
14893;DHT22;7538;53.626;9.906;2023-01-09T10:04:00;9.00;99.90
14893;DHT22;7538;53.626;9.906;2023-01-09T10:06:33;9.00;99.90
14893;DHT22;7538;53.626;9.906;2023-01-09T10:09:05;9.00;99.90
14893;DHT22;7538;53.626;9.906;2023-01-09T10:11:38;9.00;99.90
14893;DHT22;7538;53.626;9.906;2023-01-09T10:14:09;9.00;99.90
14893;DHT22;7538;53.626;9.906;2023-01-09T10:19:36;9.00;99.90
14893;DHT22;7538;53.626;9.906;2023-01-09T10:22:18;9.00;99.90
14893;DHT22;7538;53.626;9.906;2023-01-09T10:25:02;9.10;99.90
14893;DHT22;7538;53.626;9.906;2023-01-09T10:27:42;9.10;99.90
14893;DHT22;7538;53.626;9.906;2023-01-09T10:30:25;9.10;99.90
14893;DHT22;7538;53.626;9.906;2023-01-09T10:32:58;9.10;99.90
14893;DHT22;7538;53.626;9.906;2023-01-09T10:35:44;9.00;99.90
14893;DHT22;7538;53.626;9.906;2023-01-09T10:38:19;9.00;99.90
14893;DHT22;7538;53.626;9.906;2023-01-09T10:40:51;9.00;99.90
14893;DHT22;7538;53.626;9.906;2023-01-09T10:43:27;9.00;99.90
14893;DHT22;7538;53.626;9.906;2023-01-09T10:45:58;9.00;99.90
14893;DHT22;7538;53.626;9.906;2023-01-09T10:48:31;9.00;99.90
14893;DHT22;7538;53.626;9.906;2023-01-09T10:50:58;9.00;99.90
14893;DHT22;7538;53.626;9.906;2023-01-09T10:53:28;8.90;99.90
14893;DHT22;7538;53.626;9.906;2023-01-09T10:56:01;9.00;99.90
14893;DHT22;7538;53.626;9.906;2023-01-09T10:58:30;8.90;99.90
14893;DHT22;7538;53.626;9.906;2023-01-09T11:00:57;9.00;99.90
14893;DHT22;7538;53.626;9.906;2023-01-09T11:03:27;9.00;99.90
14893;DHT22;7538;53.626;9.906;2023-01-09T11:05:56;9.00;99.90
14893;DHT22;7538;53.626;9.906;2023-01-09T11:08:29;9.00;99.90
14893;DHT22;7538;53.626;9.906;2023-01-09T11:10:58;9.00;99.90
14893;DHT22;7538;53.626;9.906;2023-01-09T11:13:27;9.00;99.90
14893;DHT22;7538;53.626;9.906;2023-01-09T11:16:05;9.00;99.90
14893;DHT22;7538;53.626;9.906;2023-01-09T11:18:32;9.00;99.90
14893;DHT22;7538;53.626;9.906;2023-01-09T11:21:29;9.00;99.90
14893;DHT22;7538;53.626;9.906;2023-01-09T11:24:26;9.00;99.90
14893;DHT22;7538;53.626;9.906;2023-01-09T11:27:21;9.10;99.90
14893;DHT22;7538;53.626;9.906;2023-01-09T11:30:20;9.20;99.90
14893;DHT22;7538;53.626;9.906;2023-01-09T11:32:51;9.30;99.90
14893;DHT22;7538;53.626;9.906;2023-01-09T11:35:24;9.30;99.90
14893;DHT22;7538;53.626;9.906;2023-01-09T11:38:03;9.40;99.90
14893;DHT22;7538;53.626;9.906;2023-01-09T11:40:37;9.40;99.90
14893;DHT22;7538;53.626;9.906;2023-01-09T11:43:12;9.50;99.90
14893;DHT22;7538;53.626;9.906;2023-01-09T11:45:43;9.50;99.90
14893;DHT22;7538;53.626;9.906;2023-01-09T11:48:27;9.50;99.90
14893;DHT22;7538;53.626;9.906;2023-01-09T11:50:57;9.40;99.90
14893;DHT22;7538;53.626;9.906;2023-01-09T11:53:25;9.50;99.90
14893;DHT22;7538;53.626;9.906;2023-01-09T11:56:00;9.50;99.90
14893;DHT22;7538;53.626;9.906;2023-01-09T11:58:29;9.60;99.90
14893;DHT22;7538;53.626;9.906;2023-01-09T12:01:08;9.70;99.90
14893;DHT22;7538;53.626;9.906;2023-01-09T12:03:58;9.80;99.90
14893;DHT22;7538;53.626;9.906;2023-01-09T12:06:39;9.90;99.90
14893;DHT22;7538;53.626;9.906;2023-01-09T12:09:13;10.00;99.90
14893;DHT22;7538;53.626;9.906;2023-01-09T12:11:49;10.00;99.90
14893;DHT22;7538;53.626;9.906;2023-01-09T12:14:36;10.00;99.90
14893;DHT22;7538;53.626;9.906;2023-01-09T12:17:20;10.00;99.90
14893;DHT22;7538;53.626;9.906;2023-01-09T12:20:03;9.80;99.90
14893;DHT22;7538;53.626;9.906;2023-01-09T12:22:36;9.90;99.90
14893;DHT22;7538;53.626;9.906;2023-01-09T12:25:20;9.90;99.90
14893;DHT22;7538;53.626;9.906;2023-01-09T12:28:05;9.80;99.90
14893;DHT22;7538;53.626;9.906;2023-01-09T12:30:47;9.80;99.90
14893;DHT22;7538;53.626;9.906;2023-01-09T12:33:26;9.80;99.90
14893;DHT22;7538;53.626;9.906;2023-01-09T12:36:08;9.80;99.90
14893;DHT22;7538;53.626;9.906;2023-01-09T12:38:40;9.80;99.90
14893;DHT22;7538;53.626;9.906;2023-01-09T12:41:51;9.80;99.90
14893;DHT22;7538;53.626;9.906;2023-01-09T12:50:52;9.70;99.90
14893;DHT22;7538;53.626;9.906;2023-01-09T12:53:24;9.70;99.90
14893;DHT22;7538;53.626;9.906;2023-01-09T12:55:56;9.70;99.90
14893;DHT22;7538;53.626;9.906;2023-01-09T12:58:32;9.70;99.90
14893;DHT22;7538;53.626;9.906;2023-01-09T13:01:09;9.70;99.90
14893;DHT22;7538;53.626;9.906;2023-01-09T13:03:42;9.60;99.90
14893;DHT22;7538;53.626;9.906;2023-01-09T13:06:14;9.60;99.90
14893;DHT22;7538;53.626;9.906;2023-01-09T13:08:44;9.50;99.90
14893;DHT22;7538;53.626;9.906;2023-01-09T13:11:16;9.50;99.90
14893;DHT22;7538;53.626;9.906;2023-01-09T13:13:46;10.10;99.90
14893;DHT22;7538;53.626;9.906;2023-01-09T13:16:19;9.50;99.90
14893;DHT22;7538;53.626;9.906;2023-01-09T13:18:51;9.50;99.90
14893;DHT22;7538;53.626;9.906;2023-01-09T13:21:19;9.60;99.90
14893;DHT22;7538;53.626;9.906;2023-01-09T13:23:50;9.60;99.90
14893;DHT22;7538;53.626;9.906;2023-01-09T13:26:21;9.60;99.90
14893;DHT22;7538;53.626;9.906;2023-01-09T13:28:52;9.60;99.90
14893;DHT22;7538;53.626;9.906;2023-01-09T13:31:41;9.70;99.90
14893;DHT22;7538;53.626;9.906;2023-01-09T13:34:14;9.70;99.90
14893;DHT22;7538;53.626;9.906;2023-01-09T13:36:47;9.70;99.90
14893;DHT22;7538;53.626;9.906;2023-01-09T13:39:22;9.70;99.90
14893;DHT22;7538;53.626;9.906;2023-01-09T13:41:53;9.70;99.90
14893;DHT22;7538;53.626;9.906;2023-01-09T13:44:40;9.70;99.90
14893;DHT22;7538;53.626;9.906;2023-01-09T13:47:16;9.70;99.90
14893;DHT22;7538;53.626;9.906;2023-01-09T13:49:59;9.70;99.90
14893;DHT22;7538;53.626;9.906;2023-01-09T13:52:32;9.60;99.90
14893;DHT22;7538;53.626;9.906;2023-01-09T13:55:26;7.00;99.90
14893;DHT22;7538;53.626;9.906;2023-01-09T13:58:16;9.60;99.90
14893;DHT22;7538;53.626;9.906;2023-01-09T14:03:33;9.60;99.90
14893;DHT22;7538;53.626;9.906;2023-01-09T14:06:12;9.60;99.90
14893;DHT22;7538;53.626;9.906;2023-01-09T14:08:41;9.60;99.90
14893;DHT22;7538;53.626;9.906;2023-01-09T14:11:09;9.60;99.90
14893;DHT22;7538;53.626;9.906;2023-01-09T14:13:44;9.60;99.90
14893;DHT22;7538;53.626;9.906;2023-01-09T14:16:17;9.60;99.90
14893;DHT22;7538;53.626;9.906;2023-01-09T14:18:49;9.60;99.90
14893;DHT22;7538;53.626;9.906;2023-01-09T14:21:18;9.60;99.90
14893;DHT22;7538;53.626;9.906;2023-01-09T14:23:51;9.70;99.90
14893;DHT22;7538;53.626;9.906;2023-01-09T14:26:22;9.70;99.90
14893;DHT22;7538;53.626;9.906;2023-01-09T14:28:50;9.70;99.90
14893;DHT22;7538;53.626;9.906;2023-01-09T14:31:27;9.70;99.90
14893;DHT22;7538;53.626;9.906;2023-01-09T14:34:24;9.70;99.90
14893;DHT22;7538;53.626;9.906;2023-01-09T14:36:54;9.70;99.90
14893;DHT22;7538;53.626;9.906;2023-01-09T14:39:23;9.70;99.90
14893;DHT22;7538;53.626;9.906;2023-01-09T14:41:52;9.70;99.90
14893;DHT22;7538;53.626;9.906;2023-01-09T14:44:27;9.70;99.90
14893;DHT22;7538;53.626;9.906;2023-01-09T14:46:57;9.60;99.90
14893;DHT22;7538;53.626;9.906;2023-01-09T14:49:32;9.60;99.90
14893;DHT22;7538;53.626;9.906;2023-01-09T14:52:02;9.60;99.90
14893;DHT22;7538;53.626;9.906;2023-01-09T14:54:37;9.50;99.90
14893;DHT22;7538;53.626;9.906;2023-01-09T14:57:24;9.50;99.90
14893;DHT22;7538;53.626;9.906;2023-01-09T14:59:56;9.50;99.90
14893;DHT22;7538;53.626;9.906;2023-01-09T15:02:23;9.50;99.90
14893;DHT22;7538;53.626;9.906;2023-01-09T15:04:55;9.40;99.90
14893;DHT22;7538;53.626;9.906;2023-01-09T15:07:24;9.40;99.90
14893;DHT22;7538;53.626;9.906;2023-01-09T15:09:59;9.40;99.90
14893;DHT22;7538;53.626;9.906;2023-01-09T15:12:27;9.30;99.90
14893;DHT22;7538;53.626;9.906;2023-01-09T15:14:56;9.30;99.90
14893;DHT22;7538;53.626;9.906;2023-01-09T15:17:27;9.30;99.90
14893;DHT22;7538;53.626;9.906;2023-01-09T15:19:58;9.20;99.90
14893;DHT22;7538;53.626;9.906;2023-01-09T15:22:28;9.10;99.90
14893;DHT22;7538;53.626;9.906;2023-01-09T15:24:55;9.10;99.90
14893;DHT22;7538;53.626;9.906;2023-01-09T15:27:22;9.00;99.90
14893;DHT22;7538;53.626;9.906;2023-01-09T15:29:51;12.40;99.90
14893;DHT22;7538;53.626;9.906;2023-01-09T15:32:21;8.90;99.90
14893;DHT22;7538;53.626;9.906;2023-01-09T15:34:49;8.80;99.90
14893;DHT22;7538;53.626;9.906;2023-01-09T15:37:24;8.80;99.90
14893;DHT22;7538;53.626;9.906;2023-01-09T15:39:52;8.80;99.90
14893;DHT22;7538;53.626;9.906;2023-01-09T15:42:22;8.70;99.90
14893;DHT22;7538;53.626;9.906;2023-01-09T15:45:13;8.70;99.90
14893;DHT22;7538;53.626;9.906;2023-01-09T15:47:43;8.70;99.90
14893;DHT22;7538;53.626;9.906;2023-01-09T15:50:12;8.70;99.90
14893;DHT22;7538;53.626;9.906;2023-01-09T15:52:40;8.70;99.90
14893;DHT22;7538;53.626;9.906;2023-01-09T15:55:21;8.80;99.90
14893;DHT22;7538;53.626;9.906;2023-01-09T15:57:50;8.80;99.90
14893;DHT22;7538;53.626;9.906;2023-01-09T16:00:35;8.80;99.90
14893;DHT22;7538;53.626;9.906;2023-01-09T16:03:22;8.80;99.90
14893;DHT22;7538;53.626;9.906;2023-01-09T16:05:52;8.90;99.90
14893;DHT22;7538;53.626;9.906;2023-01-09T16:08:25;8.90;99.90
14893;DHT22;7538;53.626;9.906;2023-01-09T16:10:57;8.90;99.90
14893;DHT22;7538;53.626;9.906;2023-01-09T16:13:26;8.90;99.90
14893;DHT22;7538;53.626;9.906;2023-01-09T16:15:54;9.00;99.90
14893;DHT22;7538;53.626;9.906;2023-01-09T16:18:27;8.90;99.90
14893;DHT22;7538;53.626;9.906;2023-01-09T16:21:02;9.00;99.90
14893;DHT22;7538;53.626;9.906;2023-01-09T16:23:32;9.00;99.90
14893;DHT22;7538;53.626;9.906;2023-01-09T16:26:05;9.10;99.90
14893;DHT22;7538;53.626;9.906;2023-01-09T16:28:32;9.00;99.90
14893;DHT22;7538;53.626;9.906;2023-01-09T16:31:02;9.00;99.90
14893;DHT22;7538;53.626;9.906;2023-01-09T16:33:30;9.00;99.90
14893;DHT22;7538;53.626;9.906;2023-01-09T16:35:57;9.00;99.90
14893;DHT22;7538;53.626;9.906;2023-01-09T16:38:25;9.00;99.90
14893;DHT22;7538;53.626;9.906;2023-01-09T16:41:00;9.00;99.90
14893;DHT22;7538;53.626;9.906;2023-01-09T16:43:45;9.00;99.90
14893;DHT22;7538;53.626;9.906;2023-01-09T16:46:12;9.00;99.90
14893;DHT22;7538;53.626;9.906;2023-01-09T16:48:39;9.00;99.90